createdAt,value
2018-06-08T00:00:31.746Z,0
2018-06-08T00:01:31.490Z,0
2018-06-08T00:02:31.459Z,0
2018-06-08T00:03:31.717Z,0
2018-06-08T00:04:31.452Z,0
2018-06-08T00:05:31.439Z,0
2018-06-08T00:06:31.960Z,0
2018-06-08T00:07:31.939Z,0
2018-06-08T00:08:31.940Z,0
2018-06-08T00:09:31.666Z,0
2018-06-08T00:10:31.914Z,0
2018-06-08T00:11:31.119Z,0
2018-06-08T00:12:31.898Z,0
2018-06-08T00:13:31.645Z,0
2018-06-08T00:14:31.872Z,0
2018-06-08T00:15:31.608Z,0
2018-06-08T00:16:31.328Z,0
2018-06-08T00:17:31.836Z,0
2018-06-08T00:18:31.835Z,0
2018-06-08T00:19:31.621Z,0
2018-06-08T00:20:31.286Z,0
2018-06-08T00:21:31.551Z,0
2018-06-08T00:22:31.540Z,0
2018-06-08T00:23:31.524Z,0
2018-06-08T00:24:31.511Z,0
2018-06-08T00:25:31.513Z,0
2018-06-08T00:26:31.752Z,0
2018-06-08T00:27:31.218Z,0
2018-06-08T00:28:31.468Z,0
2018-06-08T00:29:31.466Z,0
2018-06-08T00:30:31.456Z,0
2018-06-08T00:31:31.177Z,0
2018-06-08T00:32:31.429Z,0
2018-06-08T00:33:31.424Z,0
2018-06-08T00:34:31.684Z,0
2018-06-08T00:35:31.146Z,0
2018-06-08T00:36:31.133Z,0
2018-06-08T00:37:31.119Z,0
2018-06-08T00:38:31.376Z,0
2018-06-08T00:39:31.366Z,0
2018-06-08T00:40:31.357Z,0
2018-06-08T00:41:31.356Z,0
2018-06-08T00:42:31.071Z,0
2018-06-08T00:43:31.057Z,0
2018-06-08T00:44:31.321Z,0
2018-06-08T00:45:31.050Z,0
2018-06-08T00:46:31.036Z,0
2018-06-08T00:47:31.548Z,0
2018-06-08T00:48:31.747Z,0
2018-06-08T00:49:31.274Z,0
2018-06-08T00:50:30.992Z,0
2018-06-08T00:51:31.523Z,0
2018-06-08T00:52:31.245Z,0
2018-06-08T00:53:31.233Z,0
2018-06-08T00:54:31.533Z,0
2018-06-08T00:55:31.213Z,0
2018-06-08T00:56:31.199Z,0
2018-06-08T00:57:31.190Z,0
2018-06-08T00:58:31.446Z,0
2018-06-08T00:59:30.914Z,0
2018-06-08T01:00:31.165Z,0
2018-06-08T01:01:31.423Z,0
2018-06-08T01:02:31.409Z,0
2018-06-08T01:03:30.881Z,0
2018-06-08T01:04:31.402Z,0
2018-06-08T01:05:31.114Z,0
2018-06-08T01:06:30.838Z,0
2018-06-08T01:07:31.104Z,0
2018-06-08T01:08:30.819Z,0
2018-06-08T01:09:31.077Z,0
2018-06-08T01:10:30.538Z,0
2018-06-08T01:11:30.788Z,0
2018-06-08T01:12:31.311Z,0
2018-06-08T01:13:31.293Z,0
2018-06-08T01:14:31.025Z,0
2018-06-08T01:15:31.025Z,0
2018-06-08T01:16:31.007Z,0
2018-06-08T01:17:31.004Z,0
2018-06-08T01:18:30.988Z,0
2018-06-08T01:19:31.240Z,0
2018-06-08T01:20:30.975Z,0
2018-06-08T01:21:31.052Z,0
2018-06-08T01:22:31.219Z,0
2018-06-08T01:23:30.675Z,0
2018-06-08T01:24:30.932Z,0
2018-06-08T01:25:31.183Z,0
2018-06-08T01:26:30.645Z,0
2018-06-08T01:27:30.904Z,0
2018-06-08T01:28:30.885Z,0
2018-06-08T01:29:30.355Z,0
2018-06-08T01:30:31.147Z,0
2018-06-08T01:31:31.123Z,0
2018-06-08T01:32:31.133Z,0
2018-06-08T01:33:30.859Z,0
2018-06-08T01:34:30.833Z,0
2018-06-08T01:35:30.822Z,0
2018-06-08T01:36:30.547Z,0
2018-06-08T01:37:30.543Z,0
2018-06-08T01:38:31.063Z,0
2018-06-08T01:39:30.515Z,0
2018-06-08T01:40:30.773Z,0
2018-06-08T01:41:30.777Z,0
2018-06-08T01:42:30.489Z,0
2018-06-08T01:43:30.527Z,0
2018-06-08T01:44:30.735Z,0
2018-06-08T01:45:31.872Z,0
2018-06-08T01:46:30.994Z,0
2018-06-08T01:47:30.442Z,0
2018-06-08T01:48:30.698Z,0
2018-06-08T01:49:30.687Z,0
2018-06-08T01:50:30.670Z,0
2018-06-08T01:51:30.399Z,0
2018-06-08T01:52:30.653Z,0
2018-06-08T01:53:30.908Z,0
2018-06-08T01:54:30.899Z,0
2018-06-08T01:55:30.889Z,0
2018-06-08T01:56:30.359Z,0
2018-06-08T01:57:30.345Z,0
2018-06-08T01:58:30.872Z,0
2018-06-08T01:59:30.062Z,0
2018-06-08T02:00:30.840Z,0
2018-06-08T02:01:30.566Z,0
2018-06-08T02:02:30.563Z,0
2018-06-08T02:03:30.292Z,0
2018-06-08T02:04:30.813Z,0
2018-06-08T02:05:30.792Z,0
2018-06-08T02:06:30.787Z,0
2018-06-08T02:07:30.506Z,0
2018-06-08T02:08:30.499Z,0
2018-06-08T02:09:30.493Z,0
2018-06-08T02:10:30.747Z,0
2018-06-08T02:11:30.473Z,0
2018-06-08T02:12:30.460Z,0
2018-06-08T02:13:30.192Z,0
2018-06-08T02:14:30.176Z,0
2018-06-08T02:15:30.175Z,0
2018-06-08T02:16:30.681Z,0
2018-06-08T02:17:30.677Z,0
2018-06-08T02:18:30.136Z,0
2018-06-08T02:19:30.388Z,0
2018-06-08T02:20:30.647Z,0
2018-06-08T02:21:30.634Z,0
2018-06-08T02:22:30.362Z,0
2018-06-08T02:23:30.614Z,0
2018-06-08T02:24:30.341Z,0
2018-06-08T02:25:30.070Z,0
2018-06-08T02:26:30.068Z,0
2018-06-08T02:27:30.317Z,0
2018-06-08T02:28:30.313Z,0
2018-06-08T02:29:29.767Z,0
2018-06-08T02:30:30.021Z,0
2018-06-08T02:31:30.541Z,0
2018-06-08T02:32:30.267Z,0
2018-06-08T02:33:30.521Z,0
2018-06-08T02:34:29.978Z,0
2018-06-08T02:35:29.987Z,0
2018-06-08T02:36:30.233Z,4
2018-06-08T02:37:30.220Z,4
2018-06-08T02:38:29.680Z,0
2018-06-08T02:39:30.457Z,0
2018-06-08T02:40:30.188Z,0
2018-06-08T02:41:29.643Z,4
2018-06-08T02:42:30.167Z,4
2018-06-08T02:43:29.894Z,4
2018-06-08T02:44:30.429Z,4
2018-06-08T02:45:29.880Z,4
2018-06-08T02:46:30.400Z,8
2018-06-08T02:47:30.116Z,4
2018-06-08T02:48:30.042Z,8
2018-06-08T02:49:29.847Z,8
2018-06-08T02:50:30.350Z,8
2018-06-08T02:51:29.811Z,12
2018-06-08T02:52:29.807Z,12
2018-06-08T02:53:29.790Z,12
2018-06-08T02:54:29.522Z,12
2018-06-08T02:55:29.776Z,12
2018-06-08T02:56:30.023Z,16
2018-06-08T02:57:30.286Z,16
2018-06-08T02:58:30.030Z,16
2018-06-08T02:59:29.730Z,20
2018-06-08T03:00:30.010Z,24
2018-06-08T03:01:29.731Z,28
2018-06-08T03:02:29.974Z,28
2018-06-08T03:03:29.965Z,32
2018-06-08T03:04:29.715Z,32
2018-06-08T03:05:30.160Z,36
2018-06-08T03:06:29.673Z,40
2018-06-08T03:07:29.666Z,44
2018-06-08T03:08:29.924Z,44
2018-06-08T03:09:29.916Z,48
2018-06-08T03:10:29.645Z,56
2018-06-08T03:11:30.153Z,56
2018-06-08T03:12:30.133Z,60
2018-06-08T03:13:29.328Z,64
2018-06-08T03:14:29.584Z,68
2018-06-08T03:15:29.839Z,72
2018-06-08T03:16:29.825Z,80
2018-06-08T03:17:29.813Z,88
2018-06-08T03:18:29.277Z,96
2018-06-08T03:19:29.537Z,104
2018-06-08T03:20:29.799Z,112
2018-06-08T03:21:29.780Z,120
2018-06-08T03:22:29.765Z,128
2018-06-08T03:23:30.039Z,140
2018-06-08T03:24:29.489Z,148
2018-06-08T03:25:29.999Z,156
2018-06-08T03:26:29.735Z,160
2018-06-08T03:27:29.715Z,168
2018-06-08T03:28:29.703Z,172
2018-06-08T03:29:29.449Z,176
2018-06-08T03:30:29.443Z,188
2018-06-08T03:31:29.714Z,192
2018-06-08T03:32:29.944Z,200
2018-06-08T03:33:29.937Z,212
2018-06-08T03:34:29.382Z,220
2018-06-08T03:35:29.650Z,232
2018-06-08T03:36:29.633Z,244
2018-06-08T03:37:29.353Z,256
2018-06-08T03:38:29.879Z,272
2018-06-08T03:39:29.597Z,288
2018-06-08T03:40:29.588Z,304
2018-06-08T03:41:29.846Z,316
2018-06-08T03:42:29.843Z,332
2018-06-08T03:43:29.830Z,344
2018-06-08T03:44:29.281Z,352
2018-06-08T03:45:29.276Z,364
2018-06-08T03:46:29.802Z,376
2018-06-08T03:47:29.255Z,388
2018-06-08T03:48:29.779Z,400
2018-06-08T03:49:29.242Z,412
2018-06-08T03:50:29.752Z,424
2018-06-08T03:51:29.216Z,440
2018-06-08T03:52:29.741Z,448
2018-06-08T03:53:29.719Z,464
2018-06-08T03:54:29.181Z,476
2018-06-08T03:55:29.451Z,488
2018-06-08T03:56:29.441Z,500
2018-06-08T03:57:29.677Z,516
2018-06-08T03:58:29.413Z,528
2018-06-08T03:59:29.666Z,548
2018-06-08T04:00:29.652Z,564
2018-06-08T04:01:29.645Z,580
2018-06-08T04:02:29.506Z,592
2018-06-08T04:03:29.360Z,604
2018-06-08T04:04:29.347Z,616
2018-06-08T04:05:29.073Z,632
2018-06-08T04:06:29.330Z,652
2018-06-08T04:07:29.581Z,672
2018-06-08T04:08:29.315Z,696
2018-06-08T04:09:29.031Z,708
2018-06-08T04:10:29.292Z,716
2018-06-08T04:11:29.273Z,712
2018-06-08T04:12:29.007Z,700
2018-06-08T04:13:28.990Z,684
2018-06-08T04:14:29.511Z,664
2018-06-08T04:15:28.977Z,648
2018-06-08T04:16:29.496Z,620
2018-06-08T04:17:29.215Z,600
2018-06-08T04:18:28.948Z,576
2018-06-08T04:19:29.484Z,560
2018-06-08T04:20:29.187Z,544
2018-06-08T04:21:29.185Z,536
2018-06-08T04:22:29.437Z,540
2018-06-08T04:23:29.159Z,548
2018-06-08T04:24:29.410Z,568
2018-06-08T04:25:29.402Z,584
2018-06-08T04:26:29.134Z,604
2018-06-08T04:27:29.388Z,624
2018-06-08T04:28:28.848Z,644
2018-06-08T04:29:29.111Z,660
2018-06-08T04:30:29.354Z,668
2018-06-08T04:31:29.398Z,664
2018-06-08T04:32:28.817Z,648
2018-06-08T04:33:29.326Z,632
2018-06-08T04:34:29.056Z,608
2018-06-08T04:35:28.515Z,576
2018-06-08T04:36:29.048Z,528
2018-06-08T04:37:29.290Z,484
2018-06-08T04:38:29.290Z,448
2018-06-08T04:39:28.737Z,424
2018-06-08T04:40:29.072Z,408
2018-06-08T04:41:28.980Z,400
2018-06-08T04:42:29.234Z,396
2018-06-08T04:43:29.226Z,404
2018-06-08T04:44:28.715Z,420
2018-06-08T04:45:28.685Z,440
2018-06-08T04:46:28.933Z,464
2018-06-08T04:47:28.658Z,496
2018-06-08T04:48:29.124Z,528
2018-06-08T04:49:28.900Z,564
2018-06-08T04:50:28.898Z,600
2018-06-08T04:51:28.679Z,644
2018-06-08T04:52:28.341Z,692
2018-06-08T04:53:28.866Z,752
2018-06-08T04:54:28.590Z,820
2018-06-08T04:55:29.112Z,900
2018-06-08T04:56:28.567Z,964
2018-06-08T04:57:28.827Z,1028
2018-06-08T04:58:28.554Z,1080
2018-06-08T04:59:28.277Z,1144
2018-06-08T05:00:28.795Z,1204
2018-06-08T05:01:28.523Z,1268
2018-06-08T05:02:28.559Z,1336
2018-06-08T05:03:28.773Z,1404
2018-06-08T05:04:28.486Z,1472
2018-06-08T05:05:29.006Z,1552
2018-06-08T05:06:28.738Z,1620
2018-06-08T05:07:28.989Z,1720
2018-06-08T05:08:28.708Z,1812
2018-06-08T05:09:28.442Z,1904
2018-06-08T05:10:28.972Z,2008
2018-06-08T05:11:28.418Z,2092
2018-06-08T05:12:28.941Z,2172
2018-06-08T05:13:28.665Z,2244
2018-06-08T05:14:28.126Z,2308
2018-06-08T05:15:28.646Z,2368
2018-06-08T05:16:28.901Z,2428
2018-06-08T05:17:28.626Z,2524
2018-06-08T05:18:28.881Z,2616
2018-06-08T05:19:28.343Z,2676
2018-06-08T05:20:28.332Z,2680
2018-06-08T05:21:28.608Z,2700
2018-06-08T05:22:28.847Z,2716
2018-06-08T05:23:28.574Z,2716
2018-06-08T05:24:28.291Z,2724
2018-06-08T05:25:28.549Z,2732
2018-06-08T05:26:28.006Z,2716
2018-06-08T05:27:28.810Z,2704
2018-06-08T05:28:28.518Z,2700
2018-06-08T05:29:28.518Z,2712
2018-06-08T05:30:28.236Z,2740
2018-06-08T05:31:28.495Z,2752
2018-06-08T05:32:28.757Z,2780
2018-06-08T05:33:28.483Z,2796
2018-06-08T05:34:28.464Z,2824
2018-06-08T05:35:28.460Z,2852
2018-06-08T05:36:28.442Z,2888
2018-06-08T05:37:28.541Z,2940
2018-06-08T05:38:28.170Z,3004
2018-06-08T05:39:28.429Z,3060
2018-06-08T05:40:28.143Z,3104
2018-06-08T05:41:28.398Z,3128
2018-06-08T05:42:28.396Z,3116
2018-06-08T05:43:28.647Z,3072
2018-06-08T05:44:27.843Z,3016
2018-06-08T05:45:28.563Z,2944
2018-06-08T05:46:28.095Z,2868
2018-06-08T05:47:28.345Z,2804
2018-06-08T05:48:28.509Z,2784
2018-06-08T05:49:28.589Z,2792
2018-06-08T05:50:28.069Z,2828
2018-06-08T05:51:28.054Z,2852
2018-06-08T05:52:28.313Z,2832
2018-06-08T05:53:28.297Z,2800
2018-06-08T05:54:28.299Z,2780
2018-06-08T05:55:28.013Z,2772
2018-06-08T05:56:28.263Z,2768
2018-06-08T05:57:28.525Z,2756
2018-06-08T05:58:28.250Z,2736
2018-06-08T05:59:27.977Z,2712
2018-06-08T06:00:28.494Z,2692
2018-06-08T06:01:28.218Z,2676
2018-06-08T06:02:28.208Z,2664
2018-06-08T06:03:28.463Z,2660
2018-06-08T06:04:27.932Z,2660
2018-06-08T06:05:28.181Z,2652
2018-06-08T06:06:28.176Z,2648
2018-06-08T06:07:28.166Z,2648
2018-06-08T06:08:28.156Z,2632
2018-06-08T06:09:27.885Z,2588
2018-06-08T06:10:28.411Z,2536
2018-06-08T06:11:28.389Z,2476
2018-06-08T06:12:28.122Z,2420
2018-06-08T06:13:28.119Z,2364
2018-06-08T06:14:28.098Z,2312
2018-06-08T06:15:28.094Z,2280
2018-06-08T06:16:27.825Z,2268
2018-06-08T06:17:28.079Z,2264
2018-06-08T06:18:28.333Z,2248
2018-06-08T06:19:28.317Z,2220
2018-06-08T06:20:28.057Z,2180
2018-06-08T06:21:28.039Z,2124
2018-06-08T06:22:28.301Z,2060
2018-06-08T06:23:28.284Z,2020
2018-06-08T06:24:28.272Z,1996
2018-06-08T06:25:28.272Z,2012
2018-06-08T06:26:27.995Z,2048
2018-06-08T06:27:28.013Z,2084
2018-06-08T06:28:27.980Z,2120
2018-06-08T06:29:27.981Z,2152
2018-06-08T06:30:28.221Z,2192
2018-06-08T06:31:27.685Z,2244
2018-06-08T06:32:27.814Z,2324
2018-06-08T06:33:27.675Z,2404
2018-06-08T06:34:27.929Z,2508
2018-06-08T06:35:27.924Z,2620
2018-06-08T06:36:27.910Z,2752
2018-06-08T06:37:27.376Z,2916
2018-06-08T06:38:27.367Z,3080
2018-06-08T06:39:27.623Z,3244
2018-06-08T06:40:27.606Z,3404
2018-06-08T06:41:28.129Z,3500
2018-06-08T06:42:27.329Z,3536
2018-06-08T06:43:27.316Z,3492
2018-06-08T06:44:28.112Z,3368
2018-06-08T06:45:28.089Z,3376
2018-06-08T06:46:27.561Z,3412
2018-06-08T06:47:28.074Z,3408
2018-06-08T06:48:28.268Z,3324
2018-06-08T06:49:27.791Z,3084
2018-06-08T06:50:27.784Z,2940
2018-06-08T06:51:27.803Z,2760
2018-06-08T06:52:27.511Z,2736
2018-06-08T06:53:27.769Z,2848
2018-06-08T06:54:28.018Z,3032
2018-06-08T06:55:27.477Z,3200
2018-06-08T06:56:27.723Z,3356
2018-06-08T06:57:27.989Z,3492
2018-06-08T06:58:27.716Z,3560
2018-06-08T06:59:27.967Z,3652
2018-06-08T07:00:27.705Z,3700
2018-06-08T07:01:27.425Z,3664
2018-06-08T07:02:27.680Z,3612
2018-06-08T07:03:27.411Z,3540
2018-06-08T07:04:27.190Z,3488
2018-06-08T07:05:27.654Z,3456
2018-06-08T07:06:27.114Z,3476
2018-06-08T07:07:27.107Z,3528
2018-06-08T07:08:27.891Z,3584
2018-06-08T07:09:27.621Z,3632
2018-06-08T07:10:27.614Z,3668
2018-06-08T07:11:27.604Z,3724
2018-06-08T07:12:27.595Z,3816
2018-06-08T07:13:27.328Z,3896
2018-06-08T07:14:27.843Z,3992
2018-06-08T07:15:27.349Z,4136
2018-06-08T07:16:27.562Z,4316
2018-06-08T07:17:27.811Z,4512
2018-06-08T07:18:27.536Z,4732
2018-06-08T07:19:27.795Z,4908
2018-06-08T07:20:27.530Z,5020
2018-06-08T07:21:27.519Z,5216
2018-06-08T07:22:27.780Z,5472
2018-06-08T07:23:27.765Z,5684
2018-06-08T07:24:27.491Z,5840
2018-06-08T07:25:27.212Z,6040
2018-06-08T07:26:27.207Z,6244
2018-06-08T07:27:27.468Z,6452
2018-06-08T07:28:27.725Z,6668
2018-06-08T07:29:27.711Z,6920
2018-06-08T07:30:27.176Z,7092
2018-06-08T07:31:27.194Z,7460
2018-06-08T07:32:27.684Z,8148
2018-06-08T07:33:27.686Z,9016
2018-06-08T07:34:27.143Z,9484
2018-06-08T07:35:27.408Z,10772
2018-06-08T07:36:27.653Z,12472
2018-06-08T07:37:27.388Z,11432
2018-06-08T07:38:27.637Z,12936
2018-06-08T07:39:27.103Z,15904
2018-06-08T07:40:27.635Z,12060
2018-06-08T07:41:27.362Z,16864
2018-06-08T07:42:27.353Z,14460
2018-06-08T07:43:27.340Z,19136
2018-06-08T07:44:27.328Z,16800
2018-06-08T07:45:27.328Z,17664
2018-06-08T07:46:27.322Z,21312
2018-06-08T07:47:27.044Z,21152
2018-06-08T07:48:27.037Z,18752
2018-06-08T07:49:27.293Z,18112
2018-06-08T07:50:27.287Z,12812
2018-06-08T07:51:27.283Z,12488
2018-06-08T07:52:27.281Z,10916
2018-06-08T07:53:27.270Z,9292
2018-06-08T07:54:27.266Z,12340
2018-06-08T07:55:26.730Z,16480
2018-06-08T07:56:27.255Z,15616
2018-06-08T07:57:27.243Z,12600
2018-06-08T07:58:27.507Z,13032
2018-06-08T07:59:27.236Z,14248
2018-06-08T08:00:26.697Z,13200
2018-06-08T08:01:27.498Z,18208
2018-06-08T08:02:26.955Z,19520
2018-06-08T08:03:26.945Z,16992
2018-06-08T08:04:26.940Z,15488
2018-06-08T08:05:27.538Z,12548
2018-06-08T08:06:27.470Z,8524
2018-06-08T08:07:27.191Z,7476
2018-06-08T08:08:27.191Z,7396
2018-06-08T08:09:27.184Z,7464
2018-06-08T08:10:27.172Z,7876
2018-06-08T08:11:27.168Z,8576
2018-06-08T08:12:27.430Z,9064
2018-06-08T08:13:27.164Z,9048
2018-06-08T08:14:27.428Z,9200
2018-06-08T08:15:27.407Z,8612
2018-06-08T08:16:27.138Z,7636
2018-06-08T08:17:27.133Z,6976
2018-06-08T08:18:27.129Z,6632
2018-06-08T08:19:27.230Z,6536
2018-06-08T08:20:27.380Z,6452
2018-06-08T08:21:27.108Z,6276
2018-06-08T08:22:27.367Z,5980
2018-06-08T08:23:27.095Z,5624
2018-06-08T08:24:26.561Z,5244
2018-06-08T08:25:27.361Z,4828
2018-06-08T08:26:26.820Z,4508
2018-06-08T08:27:26.821Z,4160
2018-06-08T08:28:27.063Z,3852
2018-06-08T08:29:27.065Z,3660
2018-06-08T08:30:27.049Z,3520
2018-06-08T08:31:27.046Z,3420
2018-06-08T08:32:27.309Z,3416
2018-06-08T08:33:27.037Z,3380
2018-06-08T08:34:27.033Z,3268
2018-06-08T08:35:26.762Z,3164
2018-06-08T08:36:26.756Z,3080
2018-06-08T08:37:27.013Z,3100
2018-06-08T08:38:27.003Z,3156
2018-06-08T08:39:26.998Z,3176
2018-06-08T08:40:27.460Z,3228
2018-06-08T08:41:26.986Z,3292
2018-06-08T08:42:27.252Z,3360
2018-06-08T08:43:26.970Z,3360
2018-06-08T08:44:26.437Z,3380
2018-06-08T08:45:26.955Z,3152
2018-06-08T08:46:26.690Z,2696
2018-06-08T08:47:26.942Z,2428
2018-06-08T08:48:26.869Z,2408
2018-06-08T08:49:26.662Z,2556
2018-06-08T08:50:27.192Z,2920
2018-06-08T08:51:26.966Z,3376
2018-06-08T08:52:26.916Z,3904
2018-06-08T08:53:26.898Z,4220
2018-06-08T08:54:26.624Z,4288
2018-06-08T08:55:27.159Z,4448
2018-06-08T08:56:26.884Z,4656
2018-06-08T08:57:26.614Z,4780
2018-06-08T08:58:26.867Z,4972
2018-06-08T08:59:27.127Z,5352
2018-06-08T09:00:27.116Z,5772
2018-06-08T09:01:26.846Z,6388
2018-06-08T09:02:26.579Z,6744
2018-06-08T09:03:27.092Z,6652
2018-06-08T09:04:26.559Z,6372
2018-06-08T09:05:27.077Z,5860
2018-06-08T09:06:27.068Z,5580
2018-06-08T09:07:27.069Z,5276
2018-06-08T09:08:26.794Z,5312
2018-06-08T09:09:26.522Z,5892
2018-06-08T09:10:26.511Z,6840
2018-06-08T09:11:26.516Z,7584
2018-06-08T09:12:26.764Z,8156
2018-06-08T09:13:26.754Z,7828
2018-06-08T09:14:26.484Z,6992
2018-06-08T09:15:26.737Z,6188
2018-06-08T09:16:27.003Z,5852
2018-06-08T09:17:26.725Z,6308
2018-06-08T09:18:26.717Z,6812
2018-06-08T09:19:26.706Z,7024
2018-06-08T09:20:26.978Z,7344
2018-06-08T09:21:26.960Z,7904
2018-06-08T09:22:26.958Z,7936
2018-06-08T09:23:26.423Z,7308
2018-06-08T09:24:26.676Z,7256
2018-06-08T09:25:26.672Z,6964
2018-06-08T09:26:26.391Z,6888
2018-06-08T09:27:27.166Z,6892
2018-06-08T09:28:26.913Z,6720
2018-06-08T09:29:26.914Z,6332
2018-06-08T09:30:26.636Z,5912
2018-06-08T09:31:26.629Z,5664
2018-06-08T09:32:26.356Z,5340
2018-06-08T09:33:26.351Z,4908
2018-06-08T09:34:26.864Z,4460
2018-06-08T09:35:26.332Z,4172
2018-06-08T09:36:26.860Z,4004
2018-06-08T09:37:26.579Z,3932
2018-06-08T09:38:26.319Z,3932
2018-06-08T09:39:26.828Z,3976
2018-06-08T09:40:26.311Z,4088
2018-06-08T09:41:26.590Z,4244
2018-06-08T09:42:26.550Z,4560
2018-06-08T09:43:26.544Z,5028
2018-06-08T09:44:26.684Z,5440
2018-06-08T09:45:26.527Z,5684
2018-06-08T09:46:26.950Z,6180
2018-06-08T09:47:26.779Z,7776
2018-06-08T09:48:26.702Z,8952
2018-06-08T09:49:26.495Z,9548
2018-06-08T09:50:26.501Z,9968
2018-06-08T09:51:26.763Z,10432
2018-06-08T09:52:26.741Z,10736
2018-06-08T09:53:25.958Z,10844
2018-06-08T09:54:26.743Z,11196
2018-06-08T09:55:26.461Z,11232
2018-06-08T09:56:26.451Z,10708
2018-06-08T09:57:26.452Z,9692
2018-06-08T09:58:26.191Z,8268
2018-06-08T09:59:26.693Z,7144
2018-06-08T10:00:26.692Z,5704
2018-06-08T10:01:26.162Z,6132
2018-06-08T10:02:26.399Z,8020
2018-06-08T10:03:26.403Z,8344
2018-06-08T10:04:26.660Z,6920
2018-06-08T10:05:26.552Z,5440
2018-06-08T10:06:26.386Z,4764
2018-06-08T10:07:26.375Z,4856
2018-06-08T10:08:26.631Z,5428
2018-06-08T10:09:25.839Z,5620
2018-06-08T10:10:26.353Z,5156
2018-06-08T10:11:26.442Z,4528
2018-06-08T10:12:26.600Z,3864
2018-06-08T10:13:26.332Z,3200
2018-06-08T10:14:26.370Z,2772
2018-06-08T10:15:26.051Z,2552
2018-06-08T10:16:26.308Z,2360
2018-06-08T10:17:26.304Z,2200
2018-06-08T10:18:26.290Z,2072
2018-06-08T10:19:26.554Z,1988
2018-06-08T10:20:26.273Z,1884
2018-06-08T10:21:26.003Z,1796
2018-06-08T10:22:25.737Z,1752
2018-06-08T10:23:26.576Z,1792
2018-06-08T10:24:26.508Z,1832
2018-06-08T10:25:26.505Z,1876
2018-06-08T10:26:26.228Z,1960
2018-06-08T10:27:26.226Z,2080
2018-06-08T10:28:26.743Z,2168
2018-06-08T10:29:26.208Z,2224
2018-06-08T10:30:26.240Z,2240
2018-06-08T10:31:25.922Z,2196
2018-06-08T10:32:26.184Z,2140
2018-06-08T10:33:26.178Z,2080
2018-06-08T10:34:25.907Z,2000
2018-06-08T10:35:25.891Z,1936
2018-06-08T10:36:26.153Z,1896
2018-06-08T10:37:25.877Z,1904
2018-06-08T10:38:25.873Z,1932
2018-06-08T10:39:26.120Z,1956
2018-06-08T10:40:26.383Z,1968
2018-06-08T10:41:26.109Z,1956
2018-06-08T10:42:26.357Z,1908
2018-06-08T10:43:25.825Z,1836
2018-06-08T10:44:26.352Z,1792
2018-06-08T10:45:25.805Z,1772
2018-06-08T10:46:25.532Z,1732
2018-06-08T10:47:25.529Z,1692
2018-06-08T10:48:26.461Z,1644
2018-06-08T10:49:26.304Z,1608
2018-06-08T10:50:26.088Z,1600
2018-06-08T10:51:26.029Z,1592
2018-06-08T10:52:26.273Z,1556
2018-06-08T10:53:26.005Z,1464
2018-06-08T10:54:25.997Z,1344
2018-06-08T10:55:25.982Z,1240
2018-06-08T10:56:25.727Z,1120
2018-06-08T10:57:26.237Z,1028
2018-06-08T10:58:25.957Z,1008
2018-06-08T10:59:25.949Z,1032
2018-06-08T11:00:25.945Z,1096
2018-06-08T11:01:26.201Z,1176
2018-06-08T11:02:25.396Z,1284
2018-06-08T11:03:25.915Z,1412
2018-06-08T11:04:25.900Z,1508
2018-06-08T11:05:25.371Z,1556
2018-06-08T11:06:26.155Z,1580
2018-06-08T11:07:25.879Z,1704
2018-06-08T11:08:25.874Z,1896
2018-06-08T11:09:25.870Z,2108
2018-06-08T11:10:25.849Z,2120
2018-06-08T11:11:26.103Z,2104
2018-06-08T11:12:26.097Z,2204
2018-06-08T11:13:25.822Z,2316
2018-06-08T11:14:25.819Z,2240
2018-06-08T11:15:26.107Z,2120
2018-06-08T11:16:25.539Z,2044
2018-06-08T11:17:25.525Z,2112
2018-06-08T11:18:25.514Z,2280
2018-06-08T11:19:25.515Z,2364
2018-06-08T11:20:25.800Z,2448
2018-06-08T11:21:25.765Z,2544
2018-06-08T11:22:25.477Z,2756
2018-06-08T11:23:25.749Z,2892
2018-06-08T11:24:25.725Z,3116
2018-06-08T11:25:25.184Z,3132
2018-06-08T11:26:25.443Z,3220
2018-06-08T11:27:25.710Z,3268
2018-06-08T11:28:25.950Z,3244
2018-06-08T11:29:25.420Z,3180
2018-06-08T11:30:25.940Z,3456
2018-06-08T11:31:25.950Z,3664
2018-06-08T11:32:25.647Z,3400
2018-06-08T11:33:25.381Z,3904
2018-06-08T11:34:25.369Z,4004
2018-06-08T11:35:25.631Z,4324
2018-06-08T11:36:25.620Z,4120
2018-06-08T11:37:25.870Z,4764
2018-06-08T11:38:25.602Z,4832
2018-06-08T11:39:25.871Z,5184
2018-06-08T11:40:25.059Z,5136
2018-06-08T11:41:25.575Z,6008
2018-06-08T11:42:25.873Z,5280
2018-06-08T11:43:25.314Z,5560
2018-06-08T11:44:25.805Z,5724
2018-06-08T11:45:25.811Z,5820
2018-06-08T11:46:25.527Z,5612
2018-06-08T11:47:25.256Z,5368
2018-06-08T11:48:25.252Z,5496
2018-06-08T11:49:25.235Z,5524
2018-06-08T11:50:24.964Z,5688
2018-06-08T11:51:25.220Z,5992
2018-06-08T11:52:25.478Z,6088
2018-06-08T11:53:25.629Z,6844
2018-06-08T11:54:25.715Z,7620
2018-06-08T11:55:25.189Z,8068
2018-06-08T11:56:25.449Z,7520
2018-06-08T11:57:25.697Z,8308
2018-06-08T11:58:25.428Z,8612
2018-06-08T11:59:25.417Z,7820
2018-06-08T12:00:25.210Z,8976
2018-06-08T12:01:25.657Z,8896
2018-06-08T12:02:25.394Z,9180
2018-06-08T12:03:25.649Z,8100
2018-06-08T12:04:25.645Z,8516
2018-06-08T12:05:24.839Z,8552
2018-06-08T12:06:25.409Z,8444
2018-06-08T12:07:25.611Z,8764
2018-06-08T12:08:25.616Z,7948
2018-06-08T12:09:25.343Z,8980
2018-06-08T12:10:25.061Z,9048
2018-06-08T12:11:25.583Z,8812
2018-06-08T12:12:25.314Z,8700
2018-06-08T12:13:25.035Z,8612
2018-06-08T12:14:25.295Z,7900
2018-06-08T12:15:25.022Z,8512
2018-06-08T12:16:25.279Z,7556
2018-06-08T12:17:25.298Z,9084
2018-06-08T12:18:25.260Z,7808
2018-06-08T12:19:25.521Z,8692
2018-06-08T12:20:25.243Z,8392
2018-06-08T12:21:25.500Z,8816
2018-06-08T12:22:25.492Z,8252
2018-06-08T12:23:24.955Z,8272
2018-06-08T12:24:25.219Z,8068
2018-06-08T12:25:24.942Z,7816
2018-06-08T12:26:25.466Z,9404
2018-06-08T12:27:25.464Z,9500
2018-06-08T12:28:25.196Z,10576
2018-06-08T12:29:25.449Z,10712
2018-06-08T12:30:25.429Z,10188
2018-06-08T12:31:25.427Z,11884
2018-06-08T12:32:25.158Z,12016
2018-06-08T12:33:25.148Z,34848
2018-06-08T12:34:25.403Z,32736
2018-06-08T12:35:25.395Z,23168
2018-06-08T12:36:24.858Z,30496
2018-06-08T12:37:25.139Z,22336
2018-06-08T12:38:24.845Z,20640
2018-06-08T12:39:25.369Z,22080
2018-06-08T12:40:24.841Z,18752
2018-06-08T12:41:25.087Z,29248
2018-06-08T12:42:25.082Z,40704
2018-06-08T12:43:24.823Z,30176
2018-06-08T12:44:25.334Z,55008
2018-06-08T12:45:25.068Z,31360
2018-06-08T12:46:25.061Z,39968
2018-06-08T12:47:25.062Z,32448
2018-06-08T12:48:25.718Z,40832
2018-06-08T12:49:25.044Z,58560
2018-06-08T12:50:25.039Z,47264
2018-06-08T12:51:25.305Z,63584
2018-06-08T12:52:24.774Z,32928
2018-06-08T12:53:25.032Z,22368
2018-06-08T12:54:24.758Z,19360
2018-06-08T12:55:25.285Z,16864
2018-06-08T12:56:24.752Z,14836
2018-06-08T12:57:25.023Z,13756
2018-06-08T12:58:25.292Z,14040
2018-06-08T12:59:25.269Z,11856
2018-06-08T13:00:25.027Z,14120
2018-06-08T13:01:25.001Z,11644
2018-06-08T13:02:24.744Z,10128
2018-06-08T13:03:24.996Z,9064
2018-06-08T13:04:24.995Z,8200
2018-06-08T13:05:25.245Z,7568
2018-06-08T13:06:24.716Z,7276
2018-06-08T13:07:24.709Z,7204
2018-06-08T13:08:25.237Z,7088
2018-06-08T13:09:24.702Z,7052
2018-06-08T13:10:24.962Z,7032
2018-06-08T13:11:24.697Z,6792
2018-06-08T13:12:24.946Z,6564
2018-06-08T13:13:25.209Z,6344
2018-06-08T13:14:25.203Z,6104
2018-06-08T13:15:24.949Z,5964
2018-06-08T13:16:25.246Z,5880
2018-06-08T13:17:25.187Z,5920
2018-06-08T13:18:25.181Z,5808
2018-06-08T13:19:25.181Z,5712
2018-06-08T13:20:24.919Z,5696
2018-06-08T13:21:25.308Z,5816
2018-06-08T13:22:24.649Z,5880
2018-06-08T13:23:24.897Z,5928
2018-06-08T13:24:24.651Z,5988
2018-06-08T13:25:24.947Z,5968
2018-06-08T13:26:24.618Z,5812
2018-06-08T13:27:25.138Z,5676
2018-06-08T13:28:24.873Z,5636
2018-06-08T13:29:24.602Z,5592
2018-06-08T13:30:24.591Z,5440
2018-06-08T13:31:24.584Z,5404
2018-06-08T13:32:24.591Z,5296
2018-06-08T13:33:25.097Z,5164
2018-06-08T13:34:25.105Z,5148
2018-06-08T13:35:25.085Z,5124
2018-06-08T13:36:25.081Z,4988
2018-06-08T13:37:24.558Z,4892
2018-06-08T13:38:24.800Z,4928